sensor_id;sensor_type;location;lat;lon;timestamp;pressure;altitude;pressure_sealevel;temperature
24714;BMP280;12820;51.580;5.010;2024-02-28T00:04:40;102032.38;;;7.31
24714;BMP280;12820;51.580;5.010;2024-02-28T00:09:42;102028.88;;;7.22
24714;BMP280;12820;51.580;5.010;2024-02-28T00:14:44;102029.59;;;7.15
24714;BMP280;12820;51.580;5.010;2024-02-28T00:19:47;102026.09;;;7.07
24714;BMP280;12820;51.580;5.010;2024-02-28T00:24:49;102025.09;;;6.98
24714;BMP280;12820;51.580;5.010;2024-02-28T00:29:52;102027.47;;;6.91
24714;BMP280;12820;51.580;5.010;2024-02-28T00:34:54;102026.44;;;6.81
24714;BMP280;12820;51.580;5.010;2024-02-28T00:39:56;102022.94;;;6.73
24714;BMP280;12820;51.580;5.010;2024-02-28T00:45:07;102026.94;;;6.66
24714;BMP280;12820;51.580;5.010;2024-02-28T00:50:10;102024.31;;;6.58
24714;BMP280;12820;51.580;5.010;2024-02-28T00:55:13;102025.84;;;6.52
24714;BMP280;12820;51.580;5.010;2024-02-28T01:00:15;102015.72;;;6.46
24714;BMP280;12820;51.580;5.010;2024-02-28T01:05:18;101999.66;;;6.36
24714;BMP280;12820;51.580;5.010;2024-02-28T01:10:20;102009.56;;;6.31
24714;BMP280;12820;51.580;5.010;2024-02-28T01:15:22;102013.59;;;6.25
24714;BMP280;12820;51.580;5.010;2024-02-28T01:20:24;102010.13;;;6.19
24714;BMP280;12820;51.580;5.010;2024-02-28T01:25:26;102006.63;;;6.12
24714;BMP280;12820;51.580;5.010;2024-02-28T01:30:28;102013.19;;;6.07
24714;BMP280;12820;51.580;5.010;2024-02-28T01:35:30;102020.56;;;6.02
24714;BMP280;12820;51.580;5.010;2024-02-28T01:40:33;102018.78;;;5.98
24714;BMP280;12820;51.580;5.010;2024-02-28T01:45:35;102031.97;;;5.92
24714;BMP280;12820;51.580;5.010;2024-02-28T01:50:38;102035.19;;;5.87
24714;BMP280;12820;51.580;5.010;2024-02-28T01:55:40;102028.41;;;5.82
24714;BMP280;12820;51.580;5.010;2024-02-28T02:00:44;102032.53;;;5.81
24714;BMP280;12820;51.580;5.010;2024-02-28T02:05:46;102021.66;;;5.78
24714;BMP280;12820;51.580;5.010;2024-02-28T02:10:48;102018.31;;;5.77
24714;BMP280;12820;51.580;5.010;2024-02-28T02:15:50;102018.16;;;5.71
24714;BMP280;12820;51.580;5.010;2024-02-28T02:20:58;102024.75;;;5.69
24714;BMP280;12820;51.580;5.010;2024-02-28T02:26:03;102012.13;;;5.64
24714;BMP280;12820;51.580;5.010;2024-02-28T02:31:05;102023.78;;;5.65
24714;BMP280;12820;51.580;5.010;2024-02-28T02:36:07;102018.66;;;5.59
24714;BMP280;12820;51.580;5.010;2024-02-28T02:41:09;102026.88;;;5.55
24714;BMP280;12820;51.580;5.010;2024-02-28T02:46:12;102029.31;;;5.53
24714;BMP280;12820;51.580;5.010;2024-02-28T02:51:14;102028.47;;;5.53
24714;BMP280;12820;51.580;5.010;2024-02-28T02:56:16;102023.50;;;5.53
24714;BMP280;12820;51.580;5.010;2024-02-28T03:01:18;102031.94;;;5.58
24714;BMP280;12820;51.580;5.010;2024-02-28T03:06:22;102026.94;;;5.58
24714;BMP280;12820;51.580;5.010;2024-02-28T03:11:26;102024.50;;;5.61
24714;BMP280;12820;51.580;5.010;2024-02-28T03:16:28;102026.19;;;5.62
24714;BMP280;12820;51.580;5.010;2024-02-28T03:21:31;102022.09;;;5.64
24714;BMP280;12820;51.580;5.010;2024-02-28T03:26:33;102018.81;;;5.65
24714;BMP280;12820;51.580;5.010;2024-02-28T03:31:35;102012.03;;;5.61
24714;BMP280;12820;51.580;5.010;2024-02-28T03:36:37;102010.28;;;5.57
24714;BMP280;12820;51.580;5.010;2024-02-28T03:41:40;102000.25;;;5.55
24714;BMP280;12820;51.580;5.010;2024-02-28T03:46:42;102008.69;;;5.59
24714;BMP280;12820;51.580;5.010;2024-02-28T03:51:44;102021.16;;;5.60
24714;BMP280;12820;51.580;5.010;2024-02-28T03:56:46;102014.53;;;5.61
24714;BMP280;12820;51.580;5.010;2024-02-28T04:01:48;102022.19;;;5.67
24714;BMP280;12820;51.580;5.010;2024-02-28T04:06:51;102027.25;;;5.69
24714;BMP280;12820;51.580;5.010;2024-02-28T04:11:54;102022.34;;;5.72
24714;BMP280;12820;51.580;5.010;2024-02-28T04:16:57;102020.72;;;5.74
24714;BMP280;12820;51.580;5.010;2024-02-28T04:22:00;102022.41;;;5.75
24714;BMP280;12820;51.580;5.010;2024-02-28T04:27:02;102007.28;;;5.69
24714;BMP280;12820;51.580;5.010;2024-02-28T04:32:06;102008.03;;;5.66
24714;BMP280;12820;51.580;5.010;2024-02-28T04:37:09;102011.19;;;5.59
24714;BMP280;12820;51.580;5.010;2024-02-28T04:42:12;102018.56;;;5.56
24714;BMP280;12820;51.580;5.010;2024-02-28T04:47:14;102040.06;;;5.51
24714;BMP280;12820;51.580;5.010;2024-02-28T04:52:19;102041.59;;;5.46
24714;BMP280;12820;51.580;5.010;2024-02-28T04:57:25;102054.78;;;5.42
24714;BMP280;12820;51.580;5.010;2024-02-28T05:02:27;102063.97;;;5.43
24714;BMP280;12820;51.580;5.010;2024-02-28T05:07:29;102058.94;;;5.42
24714;BMP280;12820;51.580;5.010;2024-02-28T05:12:32;102057.22;;;5.41
24714;BMP280;12820;51.580;5.010;2024-02-28T05:17:34;102061.34;;;5.39
24714;BMP280;12820;51.580;5.010;2024-02-28T05:22:36;102062.16;;;5.38
24714;BMP280;12820;51.580;5.010;2024-02-28T05:27:42;102070.44;;;5.37
24714;BMP280;12820;51.580;5.010;2024-02-28T05:32:44;102076.19;;;5.34
24714;BMP280;12820;51.580;5.010;2024-02-28T05:37:46;102067.66;;;5.27
24714;BMP280;12820;51.580;5.010;2024-02-28T05:42:48;102074.34;;;5.28
24714;BMP280;12820;51.580;5.010;2024-02-28T05:47:50;102072.53;;;5.22
24714;BMP280;12820;51.580;5.010;2024-02-28T05:52:53;102069.16;;;5.20
24714;BMP280;12820;51.580;5.010;2024-02-28T05:57:55;102060.78;;;5.17
24714;BMP280;12820;51.580;5.010;2024-02-28T06:02:57;102059.88;;;5.15
24714;BMP280;12820;51.580;5.010;2024-02-28T06:07:59;102072.34;;;5.15
24714;BMP280;12820;51.580;5.010;2024-02-28T06:13:02;102080.59;;;5.14
24714;BMP280;12820;51.580;5.010;2024-02-28T06:18:05;102068.09;;;5.11
24714;BMP280;12820;51.580;5.010;2024-02-28T06:23:07;102073.06;;;5.11
24714;BMP280;12820;51.580;5.010;2024-02-28T06:28:20;102071.50;;;5.14
24714;BMP280;12820;51.580;5.010;2024-02-28T06:33:23;102075.69;;;5.15
24714;BMP280;12820;51.580;5.010;2024-02-28T06:38:25;102081.63;;;5.20
24714;BMP280;12820;51.580;5.010;2024-02-28T06:43:27;102085.88;;;5.24
24714;BMP280;12820;51.580;5.010;2024-02-28T06:48:29;102089.38;;;5.31
24714;BMP280;12820;51.580;5.010;2024-02-28T06:53:32;102097.06;;;5.38
24714;BMP280;12820;51.580;5.010;2024-02-28T06:58:34;102113.88;;;5.46
24714;BMP280;12820;51.580;5.010;2024-02-28T07:03:36;102131.59;;;5.55
24714;BMP280;12820;51.580;5.010;2024-02-28T07:08:39;102134.22;;;5.59
24714;BMP280;12820;51.580;5.010;2024-02-28T07:13:41;102131.94;;;5.67
24714;BMP280;12820;51.580;5.010;2024-02-28T07:18:43;102136.34;;;5.76
24714;BMP280;12820;51.580;5.010;2024-02-28T07:23:46;102144.91;;;5.85
24714;BMP280;12820;51.580;5.010;2024-02-28T07:28:48;102141.94;;;6.00
24714;BMP280;12820;51.580;5.010;2024-02-28T07:33:51;102133.94;;;6.12
24714;BMP280;12820;51.580;5.010;2024-02-28T07:38:54;102150.16;;;6.29
24714;BMP280;12820;51.580;5.010;2024-02-28T07:43:56;102152.91;;;6.40
24714;BMP280;12820;51.580;5.010;2024-02-28T07:48:58;102151.41;;;6.47
24714;BMP280;12820;51.580;5.010;2024-02-28T07:54:00;102171.59;;;6.56
24714;BMP280;12820;51.580;5.010;2024-02-28T07:59:05;102182.63;;;6.63
24714;BMP280;12820;51.580;5.010;2024-02-28T08:04:07;102176.19;;;6.74
24714;BMP280;12820;51.580;5.010;2024-02-28T08:09:09;102168.06;;;6.82
24714;BMP280;12820;51.580;5.010;2024-02-28T08:14:14;102185.00;;;6.95
24714;BMP280;12820;51.580;5.010;2024-02-28T08:19:16;102186.88;;;7.05
24714;BMP280;12820;51.580;5.010;2024-02-28T08:24:19;102191.41;;;7.20
24714;BMP280;12820;51.580;5.010;2024-02-28T08:29:21;102203.50;;;7.42
24714;BMP280;12820;51.580;5.010;2024-02-28T08:34:23;102191.38;;;7.61
24714;BMP280;12820;51.580;5.010;2024-02-28T08:39:26;102201.63;;;7.72
24714;BMP280;12820;51.580;5.010;2024-02-28T08:44:28;102208.44;;;7.80
24714;BMP280;12820;51.580;5.010;2024-02-28T08:49:31;102211.03;;;7.85
24714;BMP280;12820;51.580;5.010;2024-02-28T08:54:33;102210.31;;;7.90
24714;BMP280;12820;51.580;5.010;2024-02-28T08:59:35;102204.72;;;8.01
24714;BMP280;12820;51.580;5.010;2024-02-28T09:04:38;102208.28;;;8.16
24714;BMP280;12820;51.580;5.010;2024-02-28T09:09:41;102203.50;;;8.28
24714;BMP280;12820;51.580;5.010;2024-02-28T09:14:44;102192.84;;;8.41
24714;BMP280;12820;51.580;5.010;2024-02-28T09:19:47;102184.66;;;8.51
24714;BMP280;12820;51.580;5.010;2024-02-28T09:24:49;102188.16;;;8.61
24714;BMP280;12820;51.580;5.010;2024-02-28T09:29:51;102185.00;;;8.74
24714;BMP280;12820;51.580;5.010;2024-02-28T09:34:54;102188.50;;;8.85
24714;BMP280;12820;51.580;5.010;2024-02-28T09:39:56;102198.75;;;8.99
24714;BMP280;12820;51.580;5.010;2024-02-28T09:45:00;102199.00;;;9.18
24714;BMP280;12820;51.580;5.010;2024-02-28T09:50:04;102190.97;;;9.45
24714;BMP280;12820;51.580;5.010;2024-02-28T09:55:06;102189.69;;;9.78
24714;BMP280;12820;51.580;5.010;2024-02-28T10:00:09;102179.13;;;10.08
24714;BMP280;12820;51.580;5.010;2024-02-28T10:05:12;102186.06;;;10.34
24714;BMP280;12820;51.580;5.010;2024-02-28T10:10:14;102170.31;;;10.60
24714;BMP280;12820;51.580;5.010;2024-02-28T10:15:18;102161.31;;;10.94
24714;BMP280;12820;51.580;5.010;2024-02-28T10:20:21;102161.53;;;11.29
24714;BMP280;12820;51.580;5.010;2024-02-28T10:25:23;102169.16;;;11.59
24714;BMP280;12820;51.580;5.010;2024-02-28T10:30:25;102169.19;;;11.81
24714;BMP280;12820;51.580;5.010;2024-02-28T10:35:28;102164.19;;;11.99
24714;BMP280;12820;51.580;5.010;2024-02-28T10:40:30;102160.84;;;12.08
24714;BMP280;12820;51.580;5.010;2024-02-28T10:45:37;102170.09;;;12.17
24714;BMP280;12820;51.580;5.010;2024-02-28T10:51:02;102171.78;;;12.24
24714;BMP280;12820;51.580;5.010;2024-02-28T10:56:09;102170.09;;;12.31
24714;BMP280;12820;51.580;5.010;2024-02-28T11:01:12;102156.63;;;12.54
24714;BMP280;12820;51.580;5.010;2024-02-28T11:06:18;102150.66;;;13.03
24714;BMP280;12820;51.580;5.010;2024-02-28T11:11:21;102148.81;;;13.37
24714;BMP280;12820;51.580;5.010;2024-02-28T11:16:33;102152.81;;;13.73
24714;BMP280;12820;51.580;5.010;2024-02-28T11:21:35;102143.25;;;14.18
24714;BMP280;12820;51.580;5.010;2024-02-28T11:26:37;102138.03;;;14.35
24714;BMP280;12820;51.580;5.010;2024-02-28T11:31:41;102141.06;;;14.69
24714;BMP280;12820;51.580;5.010;2024-02-28T11:36:46;102149.47;;;15.45
24714;BMP280;12820;51.580;5.010;2024-02-28T11:41:49;102124.25;;;15.92
24714;BMP280;12820;51.580;5.010;2024-02-28T11:46:51;102131.03;;;15.90
24714;BMP280;12820;51.580;5.010;2024-02-28T11:51:56;102129.69;;;15.68
24714;BMP280;12820;51.580;5.010;2024-02-28T11:56:58;102136.09;;;15.35
24714;BMP280;12820;51.580;5.010;2024-02-28T12:02:11;102134.00;;;15.00
24714;BMP280;12820;51.580;5.010;2024-02-28T12:07:13;102115.56;;;14.87
24714;BMP280;12820;51.580;5.010;2024-02-28T12:12:15;102119.03;;;14.75
24714;BMP280;12820;51.580;5.010;2024-02-28T12:17:18;102115.69;;;14.75
24714;BMP280;12820;51.580;5.010;2024-02-28T12:22:21;102104.66;;;14.80
24714;BMP280;12820;51.580;5.010;2024-02-28T12:27:23;102110.59;;;14.75
24714;BMP280;12820;51.580;5.010;2024-02-28T12:32:25;102114.19;;;14.57
24714;BMP280;12820;51.580;5.010;2024-02-28T12:37:28;102117.81;;;14.34
24714;BMP280;12820;51.580;5.010;2024-02-28T12:42:31;102108.66;;;14.21
24714;BMP280;12820;51.580;5.010;2024-02-28T12:47:33;102105.38;;;14.12
24714;BMP280;12820;51.580;5.010;2024-02-28T12:52:36;102105.38;;;14.09
24714;BMP280;12820;51.580;5.010;2024-02-28T12:57:38;102110.47;;;14.04
24714;BMP280;12820;51.580;5.010;2024-02-28T13:02:42;102096.19;;;13.99
24714;BMP280;12820;51.580;5.010;2024-02-28T13:07:44;102103.78;;;13.99
24714;BMP280;12820;51.580;5.010;2024-02-28T13:12:47;102089.50;;;13.95
24714;BMP280;12820;51.580;5.010;2024-02-28T13:17:49;102096.28;;;13.90
24714;BMP280;12820;51.580;5.010;2024-02-28T13:22:52;102081.97;;;13.88
24714;BMP280;12820;51.580;5.010;2024-02-28T13:27:55;102084.31;;;14.10
24714;BMP280;12820;51.580;5.010;2024-02-28T13:32:57;102075.81;;;14.17
24714;BMP280;12820;51.580;5.010;2024-02-28T13:38:00;102074.22;;;14.07
24714;BMP280;12820;51.580;5.010;2024-02-28T13:43:03;102060.88;;;13.92
24714;BMP280;12820;51.580;5.010;2024-02-28T13:48:15;102054.19;;;13.86
24714;BMP280;12820;51.580;5.010;2024-02-28T13:53:18;102053.28;;;13.93
24714;BMP280;12820;51.580;5.010;2024-02-28T13:58:20;102044.78;;;14.00
24714;BMP280;12820;51.580;5.010;2024-02-28T14:03:23;102041.28;;;14.17
24714;BMP280;12820;51.580;5.010;2024-02-28T14:08:27;102035.31;;;14.20
24714;BMP280;12820;51.580;5.010;2024-02-28T14:13:36;102034.53;;;14.16
24714;BMP280;12820;51.580;5.010;2024-02-28T14:18:40;102021.00;;;14.19
24714;BMP280;12820;51.580;5.010;2024-02-28T14:23:42;102020.94;;;14.23
24714;BMP280;12820;51.580;5.010;2024-02-28T14:28:44;102017.53;;;14.28
24714;BMP280;12820;51.580;5.010;2024-02-28T14:33:46;102007.41;;;14.30
24714;BMP280;12820;51.580;5.010;2024-02-28T14:38:49;101994.81;;;14.25
24714;BMP280;12820;51.580;5.010;2024-02-28T14:43:51;101997.44;;;14.14
24714;BMP280;12820;51.580;5.010;2024-02-28T14:48:53;101995.91;;;14.03
24714;BMP280;12820;51.580;5.010;2024-02-28T14:53:56;101996.88;;;13.88
24714;BMP280;12820;51.580;5.010;2024-02-28T14:58:58;102011.28;;;13.76
24714;BMP280;12820;51.580;5.010;2024-02-28T15:04:00;102008.88;;;13.65
24714;BMP280;12820;51.580;5.010;2024-02-28T15:09:03;101993.81;;;13.51
24714;BMP280;12820;51.580;5.010;2024-02-28T15:14:07;101991.38;;;13.38
24714;BMP280;12820;51.580;5.010;2024-02-28T15:19:09;101978.78;;;13.34
24714;BMP280;12820;51.580;5.010;2024-02-28T15:24:11;101971.25;;;13.32
24714;BMP280;12820;51.580;5.010;2024-02-28T15:29:14;101971.28;;;13.27
24714;BMP280;12820;51.580;5.010;2024-02-28T15:34:16;101956.97;;;13.26
24714;BMP280;12820;51.580;5.010;2024-02-28T15:39:19;101957.81;;;13.28
24714;BMP280;12820;51.580;5.010;2024-02-28T15:44:21;101955.19;;;13.38
24714;BMP280;12820;51.580;5.010;2024-02-28T15:49:23;101945.84;;;13.47
24714;BMP280;12820;51.580;5.010;2024-02-28T15:54:41;101944.09;;;13.52
24714;BMP280;12820;51.580;5.010;2024-02-28T15:59:44;101942.47;;;13.48
24714;BMP280;12820;51.580;5.010;2024-02-28T16:04:46;101934.09;;;13.45
24714;BMP280;12820;51.580;5.010;2024-02-28T16:09:50;101924.88;;;13.41
24714;BMP280;12820;51.580;5.010;2024-02-28T16:14:53;101937.53;;;13.36
24714;BMP280;12820;51.580;5.010;2024-02-28T16:19:55;101933.41;;;13.25
24714;BMP280;12820;51.580;5.010;2024-02-28T16:24:58;101931.84;;;13.13
24714;BMP280;12820;51.580;5.010;2024-02-28T16:30:00;101934.47;;;12.95
24714;BMP280;12820;51.580;5.010;2024-02-28T16:35:03;101932.06;;;12.80
24714;BMP280;12820;51.580;5.010;2024-02-28T16:40:06;101918.69;;;12.64
24714;BMP280;12820;51.580;5.010;2024-02-28T16:45:11;101914.50;;;12.53
24714;BMP280;12820;51.580;5.010;2024-02-28T16:50:14;101920.44;;;12.43
24714;BMP280;12820;51.580;5.010;2024-02-28T16:55:16;101910.41;;;12.30
24714;BMP280;12820;51.580;5.010;2024-02-28T17:00:18;101907.13;;;12.16
24714;BMP280;12820;51.580;5.010;2024-02-28T17:05:22;101891.22;;;12.04
24714;BMP280;12820;51.580;5.010;2024-02-28T17:10:24;101891.22;;;11.91
24714;BMP280;12820;51.580;5.010;2024-02-28T17:15:28;101904.69;;;11.81
24714;BMP280;12820;51.580;5.010;2024-02-28T17:20:30;101908.06;;;11.73
24714;BMP280;12820;51.580;5.010;2024-02-28T17:25:32;101905.59;;;11.66
24714;BMP280;12820;51.580;5.010;2024-02-28T17:30:53;101906.44;;;11.53
24714;BMP280;12820;51.580;5.010;2024-02-28T17:35:55;101904.78;;;11.46
24714;BMP280;12820;51.580;5.010;2024-02-28T17:40:57;101903.94;;;11.40
24714;BMP280;12820;51.580;5.010;2024-02-28T17:46:00;101901.41;;;11.31
24714;BMP280;12820;51.580;5.010;2024-02-28T17:51:03;101903.91;;;11.25
24714;BMP280;12820;51.580;5.010;2024-02-28T17:56:05;101905.59;;;11.19
24714;BMP280;12820;51.580;5.010;2024-02-28T18:01:08;101910.63;;;11.16
24714;BMP280;12820;51.580;5.010;2024-02-28T18:06:11;101904.75;;;11.11
24714;BMP280;12820;51.580;5.010;2024-02-28T18:11:13;101903.06;;;11.06
24714;BMP280;12820;51.580;5.010;2024-02-28T18:16:15;101913.13;;;11.07
24714;BMP280;12820;51.580;5.010;2024-02-28T18:21:21;101906.44;;;11.03
24714;BMP280;12820;51.580;5.010;2024-02-28T18:26:23;101895.53;;;11.04
24714;BMP280;12820;51.580;5.010;2024-02-28T18:31:26;101893.00;;;11.01
24714;BMP280;12820;51.580;5.010;2024-02-28T18:36:28;101889.66;;;11.04
24714;BMP280;12820;51.580;5.010;2024-02-28T18:41:31;101897.19;;;11.04
24714;BMP280;12820;51.580;5.010;2024-02-28T18:46:33;101897.19;;;11.05
24714;BMP280;12820;51.580;5.010;2024-02-28T18:51:35;101892.16;;;11.07
24714;BMP280;12820;51.580;5.010;2024-02-28T18:56:38;101878.75;;;11.03
24714;BMP280;12820;51.580;5.010;2024-02-28T19:01:40;101875.38;;;11.03
24714;BMP280;12820;51.580;5.010;2024-02-28T19:06:46;101875.38;;;11.01
24714;BMP280;12820;51.580;5.010;2024-02-28T19:11:49;101866.16;;;11.02
24714;BMP280;12820;51.580;5.010;2024-02-28T19:16:52;101854.44;;;10.95
24714;BMP280;12820;51.580;5.010;2024-02-28T19:21:54;101859.47;;;10.94
24714;BMP280;12820;51.580;5.010;2024-02-28T19:26:56;101855.25;;;10.90
24714;BMP280;12820;51.580;5.010;2024-02-28T19:31:58;101840.19;;;10.81
24714;BMP280;12820;51.580;5.010;2024-02-28T19:37:02;101842.69;;;10.75
24714;BMP280;12820;51.580;5.010;2024-02-28T19:42:05;101838.50;;;10.67
24714;BMP280;12820;51.580;5.010;2024-02-28T19:47:07;101846.00;;;10.60
24714;BMP280;12820;51.580;5.010;2024-02-28T19:52:09;101843.47;;;10.51
24714;BMP280;12820;51.580;5.010;2024-02-28T19:57:12;101849.34;;;10.43
24714;BMP280;12820;51.580;5.010;2024-02-28T20:02:14;101841.75;;;10.32
24714;BMP280;12820;51.580;5.010;2024-02-28T20:07:16;101830.00;;;10.23
24714;BMP280;12820;51.580;5.010;2024-02-28T20:12:18;101830.00;;;10.17
24714;BMP280;12820;51.580;5.010;2024-02-28T20:17:20;101816.53;;;10.06
24714;BMP280;12820;51.580;5.010;2024-02-28T20:22:23;101818.19;;;10.01
24714;BMP280;12820;51.580;5.010;2024-02-28T20:27:25;101803.94;;;9.92
24714;BMP280;12820;51.580;5.010;2024-02-28T20:32:27;101802.25;;;9.85
24714;BMP280;12820;51.580;5.010;2024-02-28T20:37:29;101800.56;;;9.79
24714;BMP280;12820;51.580;5.010;2024-02-28T20:42:32;101785.44;;;9.71
24714;BMP280;12820;51.580;5.010;2024-02-28T20:47:35;101777.88;;;9.66
24714;BMP280;12820;51.580;5.010;2024-02-28T20:52:38;101769.47;;;9.61
24714;BMP280;12820;51.580;5.010;2024-02-28T20:57:40;101769.44;;;9.56
24714;BMP280;12820;51.580;5.010;2024-02-28T21:02:43;101765.25;;;9.50
24714;BMP280;12820;51.580;5.010;2024-02-28T21:07:46;101756.00;;;9.40
24714;BMP280;12820;51.580;5.010;2024-02-28T21:12:54;101760.16;;;9.36
24714;BMP280;12820;51.580;5.010;2024-02-28T21:17:57;101750.06;;;9.30
24714;BMP280;12820;51.580;5.010;2024-02-28T21:22:59;101745.03;;;9.23
24714;BMP280;12820;51.580;5.010;2024-02-28T21:28:02;101747.53;;;9.20
24714;BMP280;12820;51.580;5.010;2024-02-28T21:33:05;101744.97;;;9.14
24714;BMP280;12820;51.580;5.010;2024-02-28T21:38:07;101746.63;;;9.12
24714;BMP280;12820;51.580;5.010;2024-02-28T21:43:09;101744.09;;;9.07
24714;BMP280;12820;51.580;5.010;2024-02-28T21:48:11;101740.69;;;9.01
24714;BMP280;12820;51.580;5.010;2024-02-28T21:53:16;101728.97;;;8.97
24714;BMP280;12820;51.580;5.010;2024-02-28T21:58:19;101725.59;;;8.92
24714;BMP280;12820;51.580;5.010;2024-02-28T22:03:21;101720.59;;;8.89
24714;BMP280;12820;51.580;5.010;2024-02-28T22:08:24;101713.00;;;8.82
24714;BMP280;12820;51.580;5.010;2024-02-28T22:13:26;101722.22;;;8.82
24714;BMP280;12820;51.580;5.010;2024-02-28T22:18:30;101705.44;;;8.78
24714;BMP280;12820;51.580;5.010;2024-02-28T22:23:32;101700.41;;;8.73
24714;BMP280;12820;51.580;5.010;2024-02-28T22:28:35;101687.84;;;8.69
24714;BMP280;12820;51.580;5.010;2024-02-28T22:33:38;101683.66;;;8.65
24714;BMP280;12820;51.580;5.010;2024-02-28T22:38:40;101679.47;;;8.63
24714;BMP280;12820;51.580;5.010;2024-02-28T22:43:42;101682.78;;;8.60
24714;BMP280;12820;51.580;5.010;2024-02-28T22:48:44;101675.25;;;8.56
24714;BMP280;12820;51.580;5.010;2024-02-28T22:53:47;101661.88;;;8.52
24714;BMP280;12820;51.580;5.010;2024-02-28T22:58:49;101642.63;;;8.50
24714;BMP280;12820;51.580;5.010;2024-02-28T23:03:51;101635.94;;;8.49
24714;BMP280;12820;51.580;5.010;2024-02-28T23:08:53;101621.72;;;8.44
24714;BMP280;12820;51.580;5.010;2024-02-28T23:13:56;101628.41;;;8.43
24714;BMP280;12820;51.580;5.010;2024-02-28T23:19:00;101622.53;;;8.41
24714;BMP280;12820;51.580;5.010;2024-02-28T23:24:02;101605.81;;;8.39
24714;BMP280;12820;51.580;5.010;2024-02-28T23:29:07;101597.44;;;8.34
24714;BMP280;12820;51.580;5.010;2024-02-28T23:34:10;101597.44;;;8.35
24714;BMP280;12820;51.580;5.010;2024-02-28T23:39:14;101613.31;;;8.36
24714;BMP280;12820;51.580;5.010;2024-02-28T23:44:16;101597.41;;;8.33
24714;BMP280;12820;51.580;5.010;2024-02-28T23:49:18;101595.75;;;8.36
24714;BMP280;12820;51.580;5.010;2024-02-28T23:54:20;101592.44;;;8.40
24714;BMP280;12820;51.580;5.010;2024-02-28T23:59:22;101589.97;;;8.43
